createdAt,value
2018-09-27T00:00:40.166Z,16.57
2018-09-27T00:03:08.701Z,16.54
2018-09-27T00:05:37.206Z,16.52
2018-09-27T00:08:05.686Z,16.53
2018-09-27T00:10:34.066Z,16.58
2018-09-27T00:13:02.776Z,16.54
2018-09-27T00:15:31.199Z,16.53
2018-09-27T00:18:00.019Z,16.53
2018-09-27T00:20:28.687Z,16.50
2018-09-27T00:22:57.095Z,16.58
2018-09-27T00:25:26.201Z,16.50
2018-09-27T00:27:55.040Z,16.47
2018-09-27T00:30:30.427Z,16.53
2018-09-27T00:32:58.905Z,16.55
2018-09-27T00:35:27.483Z,16.49
2018-09-27T00:37:55.897Z,16.54
2018-09-27T00:40:24.282Z,16.50
2018-09-27T00:42:52.662Z,16.51
2018-09-27T00:45:21.127Z,16.48
2018-09-27T00:47:49.553Z,16.46
2018-09-27T00:50:17.941Z,16.50
2018-09-27T00:52:46.369Z,16.54
2018-09-27T00:55:14.819Z,16.56
2018-09-27T00:57:43.161Z,16.59
2018-09-27T01:00:11.539Z,16.56
2018-09-27T01:02:40.286Z,16.56
2018-09-27T01:05:08.639Z,16.55
2018-09-27T01:07:37.234Z,16.57
2018-09-27T01:10:05.922Z,16.55
2018-09-27T01:12:34.932Z,16.55
2018-09-27T01:15:03.364Z,16.55
2018-09-27T01:17:31.826Z,16.56
2018-09-27T01:20:00.165Z,16.56
2018-09-27T01:22:28.787Z,16.57
2018-09-27T01:24:57.233Z,16.58
2018-09-27T01:27:25.860Z,16.56
2018-09-27T01:29:54.331Z,16.57
2018-09-27T01:32:22.730Z,16.62
2018-09-27T01:34:51.699Z,16.57
2018-09-27T01:37:20.138Z,16.61
2018-09-27T01:39:48.738Z,16.67
2018-09-27T01:42:17.152Z,16.63
2018-09-27T01:44:45.740Z,16.58
2018-09-27T01:47:14.316Z,16.57
2018-09-27T01:49:42.724Z,16.59
2018-09-27T01:52:11.261Z,16.58
2018-09-27T01:54:40.072Z,16.54
2018-09-27T01:57:08.760Z,16.53
2018-09-27T01:59:37.126Z,16.54
2018-09-27T02:02:05.658Z,16.52
2018-09-27T02:04:34.066Z,16.54
2018-09-27T02:07:02.573Z,16.54
2018-09-27T02:09:31.113Z,16.58
2018-09-27T02:11:59.448Z,16.56
2018-09-27T02:14:27.860Z,16.54
2018-09-27T02:16:56.278Z,16.52
2018-09-27T02:19:25.556Z,16.52
2018-09-27T02:21:54.370Z,16.55
2018-09-27T02:24:23.027Z,16.55
2018-09-27T02:26:52.302Z,16.53
2018-09-27T02:29:20.717Z,16.54
2018-09-27T02:31:49.160Z,16.53
2018-09-27T02:34:17.627Z,16.54
2018-09-27T02:36:46.129Z,16.56
2018-09-27T02:39:15.991Z,16.55
2018-09-27T02:41:44.404Z,16.56
2018-09-27T02:44:12.800Z,16.53
2018-09-27T02:46:41.146Z,16.52
2018-09-27T02:49:09.512Z,16.59
2018-09-27T02:51:38.760Z,16.58
2018-09-27T02:54:07.167Z,16.57
2018-09-27T02:56:35.523Z,16.53
2018-09-27T02:59:03.930Z,16.60
2018-09-27T03:01:32.276Z,16.54
2018-09-27T03:04:00.714Z,16.51
2018-09-27T03:06:29.226Z,16.51
2018-09-27T03:08:57.612Z,16.51
2018-09-27T03:11:25.949Z,16.56
2018-09-27T03:13:54.366Z,16.50
2018-09-27T03:16:22.815Z,16.53
2018-09-27T03:18:51.170Z,16.46
2018-09-27T03:21:21.212Z,16.48
2018-09-27T03:23:49.556Z,16.45
2018-09-27T03:26:17.904Z,16.49
2018-09-27T03:28:46.244Z,16.49
2018-09-27T03:31:14.590Z,16.48
2018-09-27T03:33:42.972Z,16.48
2018-09-27T03:36:11.444Z,16.44
2018-09-27T03:38:39.816Z,16.45
2018-09-27T03:41:08.199Z,16.43
2018-09-27T03:43:36.645Z,16.44
2018-09-27T03:46:05.003Z,16.44
2018-09-27T03:48:33.396Z,16.45
2018-09-27T03:51:01.958Z,16.38
2018-09-27T03:53:30.333Z,16.36
2018-09-27T03:55:58.726Z,16.39
2018-09-27T03:58:27.094Z,16.40
2018-09-27T04:00:55.571Z,16.35
2018-09-27T04:03:24.040Z,16.35
2018-09-27T04:05:52.328Z,16.38
2018-09-27T04:08:20.702Z,16.34
2018-09-27T04:10:49.282Z,16.28
2018-09-27T04:13:17.726Z,16.30
2018-09-27T04:15:47.255Z,16.28
2018-09-27T04:18:15.662Z,16.24
2018-09-27T04:20:52.185Z,16.28
2018-09-27T04:23:22.383Z,16.27
2018-09-27T04:25:51.766Z,16.27
2018-09-27T04:28:20.653Z,16.27
2018-09-27T04:30:49.145Z,16.25
2018-09-27T04:33:17.557Z,16.30
2018-09-27T04:35:46.039Z,16.30
2018-09-27T04:38:14.500Z,16.27
2018-09-27T04:40:42.904Z,16.27
2018-09-27T04:43:11.466Z,16.22
2018-09-27T04:45:39.951Z,16.24
2018-09-27T04:48:08.278Z,16.23
2018-09-27T04:50:36.736Z,16.22
2018-09-27T04:53:05.134Z,16.15
2018-09-27T04:55:33.724Z,16.12
2018-09-27T04:58:02.334Z,16.10
2018-09-27T05:00:31.435Z,16.06
2018-09-27T05:02:59.947Z,16.04
2018-09-27T05:05:29.117Z,16.03
2018-09-27T05:07:57.663Z,16.06
2018-09-27T05:10:26.200Z,16.00
2018-09-27T05:12:54.826Z,16.04
2018-09-27T05:15:23.286Z,15.97
2018-09-27T05:17:51.614Z,15.99
2018-09-27T05:20:20.327Z,16.01
2018-09-27T05:22:48.742Z,15.95
2018-09-27T05:25:17.115Z,15.92
2018-09-27T05:27:45.565Z,15.95
2018-09-27T05:30:14.009Z,15.97
2018-09-27T05:32:42.424Z,15.87
2018-09-27T05:35:10.917Z,15.93
2018-09-27T05:37:39.364Z,15.93
2018-09-27T05:40:08.062Z,15.90
2018-09-27T05:42:36.470Z,15.92
2018-09-27T05:45:04.852Z,15.89
2018-09-27T05:47:39.674Z,15.89
2018-09-27T05:50:08.465Z,15.80
2018-09-27T05:52:36.894Z,15.78
2018-09-27T05:55:05.361Z,15.82
2018-09-27T05:57:33.845Z,15.82
2018-09-27T06:00:02.324Z,15.77
2018-09-27T06:02:30.960Z,15.72
2018-09-27T06:04:59.458Z,15.73
2018-09-27T06:07:27.941Z,15.64
2018-09-27T06:09:56.566Z,15.62
2018-09-27T06:12:24.992Z,15.61
2018-09-27T06:14:53.482Z,15.56
2018-09-27T06:17:21.924Z,15.53
2018-09-27T06:19:50.559Z,15.55
2018-09-27T06:22:19.070Z,15.52
2018-09-27T06:24:47.862Z,15.54
2018-09-27T06:27:16.248Z,15.51
2018-09-27T06:29:44.738Z,15.52
2018-09-27T06:32:13.189Z,15.55
2018-09-27T06:34:41.656Z,15.55
2018-09-27T06:37:10.167Z,15.54
2018-09-27T06:39:38.609Z,15.53
2018-09-27T06:42:07.213Z,15.52
2018-09-27T06:44:35.660Z,15.54
2018-09-27T06:47:04.231Z,15.51
2018-09-27T06:49:32.740Z,15.56
2018-09-27T06:52:01.452Z,15.53
2018-09-27T06:54:29.839Z,15.56
2018-09-27T06:56:58.389Z,15.62
2018-09-27T06:59:26.968Z,15.61
2018-09-27T07:01:55.538Z,15.61
2018-09-27T07:04:23.958Z,15.56
2018-09-27T07:06:52.451Z,15.59
2018-09-27T07:09:20.922Z,15.62
2018-09-27T07:11:49.581Z,15.61
2018-09-27T07:14:18.123Z,15.64
2018-09-27T07:16:46.565Z,15.67
2018-09-27T07:19:15.133Z,15.68
2018-09-27T07:21:43.557Z,15.63
2018-09-27T07:24:12.133Z,15.59
2018-09-27T07:26:40.574Z,15.61
2018-09-27T07:29:08.987Z,15.59
2018-09-27T07:31:37.617Z,15.66
2018-09-27T07:34:06.203Z,15.80
2018-09-27T07:36:34.743Z,15.91
2018-09-27T07:39:03.285Z,16.04
2018-09-27T07:41:31.856Z,16.22
2018-09-27T07:44:00.373Z,16.23
2018-09-27T07:46:28.869Z,16.19
2018-09-27T07:48:57.272Z,16.18
2018-09-27T07:51:25.675Z,16.19
2018-09-27T07:53:55.030Z,16.15
2018-09-27T07:56:23.683Z,16.17
2018-09-27T07:58:52.247Z,16.31
2018-09-27T08:01:21.001Z,16.55
2018-09-27T08:03:49.669Z,16.71
2018-09-27T08:06:18.202Z,16.69
2018-09-27T08:08:47.555Z,16.48
2018-09-27T08:11:16.195Z,16.42
2018-09-27T08:13:44.567Z,16.38
2018-09-27T08:16:13.012Z,16.41
2018-09-27T08:18:41.735Z,16.47
2018-09-27T08:21:10.432Z,16.62
2018-09-27T08:23:38.901Z,16.86
2018-09-27T08:26:07.418Z,17.16
2018-09-27T08:28:35.769Z,17.36
2018-09-27T08:31:04.303Z,17.50
2018-09-27T08:33:32.903Z,17.49
2018-09-27T08:36:01.931Z,17.30
2018-09-27T08:38:30.430Z,17.22
2018-09-27T08:40:58.876Z,17.24
2018-09-27T08:43:27.408Z,17.19
2018-09-27T08:45:55.901Z,17.18
2018-09-27T08:48:24.277Z,17.38
2018-09-27T08:50:52.769Z,17.49
2018-09-27T08:53:21.157Z,17.51
2018-09-27T08:55:49.677Z,17.60
2018-09-27T08:58:18.077Z,17.65
2018-09-27T09:00:46.473Z,17.85
2018-09-27T09:03:15.072Z,18.04
2018-09-27T09:05:43.457Z,18.18
2018-09-27T09:08:12.598Z,18.35
2018-09-27T09:10:41.452Z,18.43
2018-09-27T09:13:10.049Z,18.48
2018-09-27T09:15:38.531Z,18.50
2018-09-27T09:18:07.210Z,18.55
2018-09-27T09:20:35.606Z,18.61
2018-09-27T09:23:04.220Z,18.66
2018-09-27T09:25:32.653Z,18.63
2018-09-27T09:28:01.183Z,18.71
2018-09-27T09:30:29.605Z,18.79
2018-09-27T09:32:58.084Z,18.86
2018-09-27T09:35:26.509Z,18.90
2018-09-27T09:37:54.980Z,18.93
2018-09-27T09:40:23.500Z,18.97
2018-09-27T09:42:51.912Z,19.10
2018-09-27T09:45:20.387Z,19.17
2018-09-27T09:47:49.003Z,19.23
2018-09-27T09:50:17.526Z,19.45
2018-09-27T09:52:46.018Z,19.72
2018-09-27T09:55:14.576Z,19.74
2018-09-27T09:57:43.232Z,19.88
2018-09-27T10:00:11.634Z,20.03
2018-09-27T10:02:40.084Z,20.22
2018-09-27T10:05:08.690Z,20.44
2018-09-27T10:07:37.130Z,20.63
2018-09-27T10:10:07.468Z,20.77
2018-09-27T10:12:35.865Z,20.92
2018-09-27T10:15:07.707Z,21.09
2018-09-27T10:17:36.359Z,21.24
2018-09-27T10:20:04.845Z,21.33
2018-09-27T10:22:33.450Z,21.43
2018-09-27T10:25:02.045Z,21.59
2018-09-27T10:27:30.501Z,21.62
2018-09-27T10:29:58.951Z,21.61
2018-09-27T10:32:27.484Z,21.32
2018-09-27T10:34:56.036Z,21.26
2018-09-27T10:37:24.537Z,21.03
2018-09-27T10:39:53.203Z,20.80
2018-09-27T10:42:21.730Z,20.69
2018-09-27T10:44:50.839Z,20.59
2018-09-27T10:47:19.246Z,20.36
2018-09-27T10:49:47.693Z,20.30
2018-09-27T10:52:16.086Z,20.29
2018-09-27T10:54:44.496Z,20.32
2018-09-27T10:57:13.147Z,20.49
2018-09-27T10:59:41.782Z,20.60
2018-09-27T11:02:10.905Z,20.60
2018-09-27T11:04:40.006Z,20.65
2018-09-27T11:07:08.523Z,20.70
2018-09-27T11:09:37.183Z,20.81
2018-09-27T11:12:05.689Z,20.86
2018-09-27T11:14:34.764Z,21.04
2018-09-27T11:17:03.409Z,21.29
2018-09-27T11:19:32.054Z,21.40
2018-09-27T11:22:01.007Z,21.52
2018-09-27T11:24:30.074Z,21.62
2018-09-27T11:26:59.647Z,21.67
2018-09-27T11:29:33.488Z,21.71
2018-09-27T11:32:07.275Z,21.63
2018-09-27T11:34:36.187Z,21.65
2018-09-27T11:37:04.735Z,21.55
2018-09-27T11:39:33.727Z,21.52
2018-09-27T11:42:02.485Z,21.48
2018-09-27T11:44:31.354Z,21.45
2018-09-27T11:47:00.523Z,21.54
2018-09-27T11:49:29.037Z,21.48
2018-09-27T11:51:57.493Z,21.44
2018-09-27T11:54:25.985Z,21.39
2018-09-27T11:56:54.420Z,21.33
2018-09-27T11:59:22.947Z,21.14
2018-09-27T12:01:51.604Z,21.05
2018-09-27T12:04:20.113Z,20.98
2018-09-27T12:06:48.575Z,20.89
2018-09-27T12:09:17.040Z,20.94
2018-09-27T12:11:45.563Z,20.92
2018-09-27T12:14:14.568Z,20.96
2018-09-27T12:16:43.102Z,20.94
2018-09-27T12:19:11.533Z,20.96
2018-09-27T12:21:40.015Z,21.04
2018-09-27T12:24:08.451Z,21.09
2018-09-27T12:26:37.010Z,21.22
2018-09-27T12:29:05.468Z,21.19
2018-09-27T12:31:35.814Z,21.27
2018-09-27T12:34:04.292Z,21.42
2018-09-27T12:36:32.788Z,21.61
2018-09-27T12:39:01.312Z,21.68
2018-09-27T12:41:29.785Z,21.67
2018-09-27T12:43:58.208Z,21.57
2018-09-27T12:46:26.646Z,21.52
2018-09-27T12:48:55.249Z,21.50
2018-09-27T12:51:23.721Z,21.50
2018-09-27T12:53:52.238Z,21.52
2018-09-27T12:56:20.748Z,21.50
2018-09-27T12:58:49.251Z,21.51
2018-09-27T13:01:17.811Z,21.52
2018-09-27T13:03:46.293Z,21.54
2018-09-27T13:06:14.714Z,21.51
2018-09-27T13:08:43.160Z,21.51
2018-09-27T13:11:11.816Z,21.50
2018-09-27T13:13:40.707Z,21.50
2018-09-27T13:16:09.394Z,21.48
2018-09-27T13:18:37.825Z,21.48
2018-09-27T13:21:06.218Z,21.51
2018-09-27T13:23:34.894Z,21.55
2018-09-27T13:26:03.367Z,21.57
2018-09-27T13:28:31.912Z,21.53
2018-09-27T13:31:00.572Z,21.55
2018-09-27T13:33:28.983Z,21.59
2018-09-27T13:35:57.467Z,21.58
2018-09-27T13:38:26.192Z,21.56
2018-09-27T13:40:54.736Z,21.55
2018-09-27T13:43:23.214Z,21.59
2018-09-27T13:45:51.878Z,21.54
2018-09-27T13:48:20.435Z,21.57
2018-09-27T13:50:48.819Z,21.54
2018-09-27T13:53:17.289Z,21.51
2018-09-27T13:55:45.729Z,21.47
2018-09-27T13:58:14.141Z,21.47
2018-09-27T14:00:42.553Z,21.56
2018-09-27T14:03:11.313Z,21.51
2018-09-27T14:05:39.760Z,21.47
2018-09-27T14:08:08.402Z,21.50
2018-09-27T14:10:36.934Z,21.48
2018-09-27T14:13:05.425Z,21.54
2018-09-27T14:15:33.978Z,21.53
2018-09-27T14:18:02.535Z,21.54
2018-09-27T14:20:31.067Z,21.51
2018-09-27T14:22:59.829Z,21.49
2018-09-27T14:25:28.211Z,21.49
2018-09-27T14:27:56.854Z,21.50
2018-09-27T14:30:25.315Z,21.54
2018-09-27T14:32:53.886Z,21.56
2018-09-27T14:35:22.294Z,21.58
2018-09-27T14:37:50.871Z,21.54
2018-09-27T14:40:19.315Z,21.56
2018-09-27T14:42:47.839Z,21.61
2018-09-27T14:45:16.265Z,21.64
2018-09-27T14:47:45.650Z,21.62
2018-09-27T14:50:14.519Z,21.65
2018-09-27T14:52:42.993Z,21.60
2018-09-27T14:55:11.342Z,21.59
2018-09-27T14:57:39.788Z,21.56
2018-09-27T15:00:08.230Z,21.50
2018-09-27T15:02:36.923Z,21.48
2018-09-27T15:05:05.484Z,21.43
2018-09-27T15:07:33.866Z,21.39
2018-09-27T15:10:02.767Z,21.37
2018-09-27T15:12:31.164Z,21.38
2018-09-27T15:14:59.590Z,21.40
2018-09-27T15:17:28.176Z,21.36
2018-09-27T15:19:56.673Z,21.28
2018-09-27T15:22:25.156Z,21.27
2018-09-27T15:24:53.648Z,21.27
2018-09-27T15:27:22.290Z,21.26
2018-09-27T15:29:50.782Z,21.23
2018-09-27T15:32:19.605Z,21.21
2018-09-27T15:34:48.643Z,21.23
2018-09-27T15:37:17.233Z,21.26
2018-09-27T15:39:45.905Z,21.25
2018-09-27T15:42:14.467Z,21.19
2018-09-27T15:44:42.912Z,21.19
2018-09-27T15:47:11.463Z,21.17
2018-09-27T15:49:40.290Z,21.18
2018-09-27T15:52:09.054Z,21.14
2018-09-27T15:54:37.721Z,21.12
2018-09-27T15:57:06.391Z,21.17
2018-09-27T15:59:35.230Z,21.14
2018-09-27T16:02:04.306Z,21.11
2018-09-27T16:04:51.632Z,21.11
2018-09-27T16:07:25.994Z,21.12
2018-09-27T16:09:54.679Z,21.08
2018-09-27T16:12:23.342Z,21.10
2018-09-27T16:14:51.949Z,21.06
2018-09-27T16:17:20.388Z,21.06
2018-09-27T16:19:48.874Z,21.04
2018-09-27T16:22:17.263Z,21.05
2018-09-27T16:24:45.719Z,21.06
2018-09-27T16:27:14.186Z,21.03
2018-09-27T16:29:42.857Z,21.04
2018-09-27T16:32:11.965Z,21.03
2018-09-27T16:34:40.481Z,21.04
2018-09-27T16:37:09.125Z,21.08
2018-09-27T16:39:37.773Z,21.03
2018-09-27T16:42:06.874Z,21.04
2018-09-27T16:44:35.353Z,21.00
2018-09-27T16:47:04.003Z,20.98
2018-09-27T16:49:32.413Z,20.97
2018-09-27T16:52:01.141Z,20.97
2018-09-27T16:54:29.751Z,20.97
2018-09-27T16:56:58.119Z,21.01
2018-09-27T16:59:26.603Z,20.97
2018-09-27T17:01:55.150Z,20.96
2018-09-27T17:04:23.689Z,20.96
2018-09-27T17:06:52.149Z,20.97
2018-09-27T17:09:20.541Z,20.98
2018-09-27T17:11:49.049Z,20.94
2018-09-27T17:14:17.569Z,20.90
2018-09-27T17:16:46.010Z,20.93
2018-09-27T17:19:14.527Z,20.95
2018-09-27T17:24:11.168Z,20.86
2018-09-27T17:26:39.676Z,20.84
2018-09-27T17:29:11.485Z,20.83
2018-09-27T17:31:39.935Z,20.83
2018-09-27T17:34:08.559Z,20.83
2018-09-27T17:36:36.942Z,20.83
2018-09-27T17:39:06.901Z,20.79
2018-09-27T17:41:35.432Z,20.76
2018-09-27T17:44:03.936Z,20.73
2018-09-27T17:46:32.701Z,20.75
2018-09-27T17:49:01.411Z,20.71
2018-09-27T17:51:30.181Z,20.68
2018-09-27T17:53:58.649Z,20.68
2018-09-27T17:56:27.378Z,20.64
2018-09-27T17:58:55.894Z,20.65
2018-09-27T18:01:24.377Z,20.66
2018-09-27T18:03:52.978Z,20.60
2018-09-27T18:06:21.419Z,20.62
2018-09-27T18:08:50.010Z,20.56
2018-09-27T18:11:18.490Z,20.60
2018-09-27T18:13:46.989Z,20.56
2018-09-27T18:16:15.555Z,20.52
2018-09-27T18:18:45.045Z,20.55
2018-09-27T18:21:13.776Z,20.51
2018-09-27T18:23:42.362Z,20.50
2018-09-27T18:26:11.040Z,20.49
2018-09-27T18:28:39.797Z,20.42
2018-09-27T18:31:08.507Z,20.38
2018-09-27T18:33:36.983Z,20.35
2018-09-27T18:36:05.424Z,20.35
2018-09-27T18:38:34.211Z,20.33
2018-09-27T18:41:02.966Z,20.33
2018-09-27T18:43:31.911Z,20.27
2018-09-27T18:46:00.469Z,20.25
2018-09-27T18:48:29.322Z,20.20
2018-09-27T18:50:57.941Z,20.20
2018-09-27T18:53:26.579Z,20.17
2018-09-27T18:55:55.297Z,20.11
2018-09-27T18:58:24.005Z,20.10
2018-09-27T19:00:53.555Z,20.09
2018-09-27T19:03:22.346Z,20.08
2018-09-27T19:05:51.054Z,20.05
2018-09-27T19:08:19.868Z,20.00
2018-09-27T19:10:48.723Z,19.97
2018-09-27T19:13:17.386Z,19.97
2018-09-27T19:15:45.891Z,19.95
2018-09-27T19:18:14.745Z,19.96
2018-09-27T19:20:43.295Z,19.97
2018-09-27T19:23:11.907Z,19.99
2018-09-27T19:25:40.429Z,20.00
2018-09-27T19:28:09.148Z,19.91
2018-09-27T19:30:37.914Z,19.87
2018-09-27T19:33:06.742Z,19.82
2018-09-27T19:35:35.278Z,19.78
2018-09-27T19:38:04.046Z,19.80
2018-09-27T19:40:32.959Z,19.79
2018-09-27T19:43:01.637Z,19.78
2018-09-27T19:45:30.539Z,19.78
2018-09-27T19:47:59.381Z,19.78
2018-09-27T19:50:28.240Z,19.78
2018-09-27T19:52:57.516Z,19.77
2018-09-27T19:55:26.735Z,19.76
2018-09-27T19:57:55.913Z,19.74
2018-09-27T20:00:25.509Z,19.72
2018-09-27T20:02:54.863Z,19.71
2018-09-27T20:05:24.185Z,19.70
2018-09-27T20:07:54.088Z,19.69
2018-09-27T20:10:24.002Z,19.65
2018-09-27T20:12:53.163Z,19.57
2018-09-27T20:15:22.564Z,19.63
2018-09-27T20:17:52.050Z,19.54
2018-09-27T20:20:21.076Z,19.53
2018-09-27T20:22:49.959Z,19.48
2018-09-27T20:25:18.864Z,19.45
2018-09-27T20:27:47.551Z,19.41
2018-09-27T20:30:16.241Z,19.40
2018-09-27T20:32:44.916Z,19.42
2018-09-27T20:35:13.498Z,19.42
2018-09-27T20:37:42.488Z,19.37
2018-09-27T20:40:11.088Z,19.35
2018-09-27T20:42:39.763Z,19.26
2018-09-27T20:45:08.339Z,19.24
2018-09-27T20:47:37.126Z,19.22
2018-09-27T20:50:05.760Z,19.20
2018-09-27T20:52:34.696Z,19.16
2018-09-27T20:55:03.867Z,19.10
2018-09-27T20:57:32.453Z,19.04
2018-09-27T21:00:01.257Z,18.99
2018-09-27T21:02:30.308Z,19.00
2018-09-27T21:04:58.727Z,18.97
2018-09-27T21:07:27.323Z,18.94
2018-09-27T21:10:02.622Z,18.91
2018-09-27T21:12:31.393Z,18.87
2018-09-27T21:14:59.818Z,18.85
2018-09-27T21:17:28.691Z,18.79
2018-09-27T21:19:57.209Z,18.75
2018-09-27T21:22:26.465Z,18.75
2018-09-27T21:24:55.096Z,18.67
2018-09-27T21:27:23.863Z,18.70
2018-09-27T21:29:52.379Z,18.58
2018-09-27T21:32:28.127Z,18.56
2018-09-27T21:34:57.165Z,18.50
2018-09-27T21:37:25.809Z,18.46
2018-09-27T21:39:54.446Z,18.43
2018-09-27T21:42:23.175Z,18.46
2018-09-27T21:44:51.773Z,18.38
2018-09-27T21:47:20.248Z,18.34
2018-09-27T21:49:48.973Z,18.35
2018-09-27T21:52:17.561Z,18.30
2018-09-27T21:54:46.162Z,18.31
2018-09-27T21:57:14.920Z,18.24
2018-09-27T21:59:43.788Z,18.24
2018-09-27T22:02:12.395Z,18.20
2018-09-27T22:04:41.148Z,18.25
2018-09-27T22:07:10.134Z,18.17
2018-09-27T22:09:38.716Z,18.15
2018-09-27T22:12:07.350Z,18.13
2018-09-27T22:14:35.909Z,18.09
2018-09-27T22:17:04.561Z,18.07
2018-09-27T22:19:33.483Z,18.05
2018-09-27T22:22:02.482Z,18.07
2018-09-27T22:24:30.999Z,18.11
2018-09-27T22:26:59.773Z,18.10
2018-09-27T22:29:28.209Z,18.14
2018-09-27T22:31:56.732Z,18.17
2018-09-27T22:34:25.244Z,18.21
2018-09-27T22:36:54.103Z,18.20
2018-09-27T22:39:22.663Z,18.16
2018-09-27T22:41:51.047Z,18.09
2018-09-27T22:44:19.655Z,18.11
2018-09-27T22:46:48.137Z,18.09
2018-09-27T22:49:16.540Z,18.08
2018-09-27T22:51:44.964Z,18.00
2018-09-27T22:54:13.543Z,17.96
2018-09-27T22:56:42.133Z,17.93
2018-09-27T22:59:10.582Z,17.90
2018-09-27T23:01:39.119Z,17.96
2018-09-27T23:04:07.705Z,17.94
2018-09-27T23:06:36.252Z,17.96
2018-09-27T23:09:06.260Z,17.91
2018-09-27T23:11:34.914Z,17.85
2018-09-27T23:14:04.712Z,17.80
2018-09-27T23:16:33.263Z,17.81
2018-09-27T23:19:02.248Z,17.84
2018-09-27T23:21:30.875Z,17.76
2018-09-27T23:23:59.774Z,17.80
2018-09-27T23:26:29.184Z,17.68
2018-09-27T23:28:57.941Z,17.68
2018-09-27T23:31:26.960Z,17.68
2018-09-27T23:33:55.542Z,17.69
2018-09-27T23:36:24.403Z,17.65
2018-09-27T23:38:52.981Z,17.59
2018-09-27T23:41:21.896Z,17.52
2018-09-27T23:43:50.511Z,17.55
2018-09-27T23:46:19.006Z,17.46
2018-09-27T23:48:47.619Z,17.50
2018-09-27T23:51:16.221Z,17.48
2018-09-27T23:53:44.706Z,17.45
2018-09-27T23:56:13.234Z,17.43
2018-09-27T23:58:41.855Z,17.46
